createdAt,value
2023-05-09T00:00:23.973Z,101893.66
2023-05-09T00:02:51.489Z,101886.41
2023-05-09T00:05:17.901Z,101884.84
2023-05-09T00:07:44.241Z,101884.84
2023-05-09T00:10:10.757Z,101884.34
2023-05-09T00:12:37.238Z,101878.53
2023-05-09T00:15:04.062Z,101873.53
2023-05-09T00:17:31.181Z,101878.09
2023-05-09T00:19:57.566Z,101873.84
2023-05-09T00:22:23.886Z,101869.91
2023-05-09T00:24:50.739Z,101872.91
2023-05-09T00:27:17.488Z,101872.41
2023-05-09T00:29:45.181Z,101877.47
2023-05-09T00:32:11.680Z,101879.34
2023-05-09T00:34:38.258Z,101879.97
2023-05-09T00:37:04.579Z,101874.63
2023-05-09T00:39:30.929Z,101868.16
2023-05-09T00:41:57.334Z,101865.97
2023-05-09T00:44:23.920Z,101864.38
2023-05-09T00:46:50.457Z,101864.09
2023-05-09T00:49:16.873Z,101862.19
2023-05-09T00:51:43.274Z,101856.84
2023-05-09T00:54:10.543Z,101852.28
2023-05-09T00:56:37.134Z,101856.06
2023-05-09T00:59:03.836Z,101857.47
2023-05-09T01:01:30.824Z,101853.56
2023-05-09T01:03:57.730Z,101849.59
2023-05-09T01:06:44.840Z,101848.03
2023-05-09T01:09:48.628Z,101840.34
2023-05-09T01:12:37.195Z,101836.09
2023-05-09T01:15:18.435Z,101833.72
2023-05-09T01:18:00.568Z,101829.19
2023-05-09T01:20:45.528Z,101825.25
2023-05-09T01:23:22.211Z,101816.75
2023-05-09T01:26:04.403Z,101813.59
2023-05-09T01:29:15.858Z,101803.22
2023-05-09T01:31:45.464Z,101801.66
2023-05-09T01:34:16.459Z,101798.22
2023-05-09T01:36:44.036Z,101799.78
2023-05-09T01:39:13.822Z,101802.44
2023-05-09T01:41:40.291Z,101799.78
2023-05-09T01:44:11.066Z,101805.91
2023-05-09T01:46:38.122Z,101802.44
2023-05-09T01:49:07.603Z,101797.09
2023-05-09T01:51:36.280Z,101794.44
2023-05-09T01:54:04.532Z,101788.63
2023-05-09T01:56:31.711Z,101792.09
2023-05-09T01:59:00.637Z,101790.19
2023-05-09T02:01:28.360Z,101786.72
2023-05-09T02:03:55.981Z,101779.00
2023-05-09T02:06:24.250Z,101773.66
2023-05-09T02:08:51.092Z,101781.38
2023-05-09T02:11:18.165Z,101772.59
2023-05-09T02:13:44.655Z,101769.91
2023-05-09T02:16:12.253Z,101770.69
2023-05-09T02:18:38.738Z,101769.91
2023-05-09T02:21:06.173Z,101768.03
2023-05-09T02:23:32.544Z,101761.91
2023-05-09T02:26:00.180Z,101760.31
2023-05-09T02:28:28.282Z,101759.53
2023-05-09T02:30:56.830Z,101755.59
2023-05-09T02:33:24.174Z,101751.66
2023-05-09T02:35:51.150Z,101753.53
2023-05-09T02:38:18.194Z,101756.53
2023-05-09T02:40:47.423Z,101751.97
2023-05-09T02:43:15.029Z,101751.19
2023-05-09T02:45:41.458Z,101751.53
2023-05-09T02:48:08.952Z,101758.44
2023-05-09T02:50:38.131Z,101749.97
2023-05-09T02:53:04.481Z,101761.72
2023-05-09T02:55:31.850Z,101747.44
2023-05-09T02:58:12.089Z,101743.50
2023-05-09T03:00:39.506Z,101747.59
2023-05-09T03:03:05.955Z,101738.03
2023-05-09T03:05:32.443Z,101732.97
2023-05-09T03:07:58.803Z,101738.31
2023-05-09T03:10:25.302Z,101733.28
2023-05-09T03:12:51.653Z,101727.16
2023-05-09T03:15:18.080Z,101723.25
2023-05-09T03:17:44.411Z,101717.41
2023-05-09T03:20:11.323Z,101723.88
2023-05-09T03:22:37.748Z,101720.75
2023-05-09T03:25:04.516Z,101718.06
2023-05-09T03:27:30.876Z,101707.06
2023-05-09T03:29:57.433Z,101710.84
2023-05-09T03:32:23.840Z,101707.38
2023-05-09T03:34:50.202Z,101699.38
2023-05-09T03:37:16.554Z,101699.38
2023-05-09T03:39:42.896Z,101699.38
2023-05-09T03:42:09.205Z,101689.47
2023-05-09T03:44:35.558Z,101681.13
2023-05-09T03:47:01.983Z,101681.13
2023-05-09T03:49:28.411Z,101677.34
2023-05-09T03:51:54.853Z,101677.03
2023-05-09T03:54:21.174Z,101669.00
2023-05-09T03:56:47.511Z,101667.16
2023-05-09T03:59:13.910Z,101656.47
2023-05-09T04:01:40.791Z,101667.16
2023-05-09T04:04:07.193Z,101663.66
2023-05-09T04:06:34.082Z,101652.19
2023-05-09T04:09:00.614Z,101650.63
2023-05-09T04:11:26.933Z,101659.13
2023-05-09T04:13:54.425Z,101664.94
2023-05-09T04:16:21.059Z,101662.25
2023-05-09T04:18:47.444Z,101659.28
2023-05-09T04:21:13.780Z,101658.50
2023-05-09T04:23:40.145Z,101661.94
2023-05-09T04:26:07.280Z,101658.50
2023-05-09T04:28:33.632Z,101662.25
2023-05-09T04:31:00.045Z,101653.16
2023-05-09T04:33:26.645Z,101654.72
2023-05-09T04:35:54.131Z,101649.06
2023-05-09T04:38:21.234Z,101649.84
2023-05-09T04:40:47.775Z,101644.50
2023-05-09T04:43:14.150Z,101647.63
2023-05-09T04:45:40.569Z,101642.75
2023-05-09T04:48:06.925Z,101642.75
2023-05-09T04:50:33.402Z,101633.66
2023-05-09T04:52:59.737Z,101632.84
2023-05-09T04:55:26.247Z,101628.31
2023-05-09T04:57:52.638Z,101631.44
2023-05-09T05:00:19.355Z,101626.53
2023-05-09T05:02:46.660Z,101630.78
2023-05-09T05:05:13.097Z,101631.72
2023-05-09T05:07:39.460Z,101629.53
2023-05-09T05:10:06.397Z,101624.66
2023-05-09T05:12:32.743Z,101617.56
2023-05-09T05:14:59.060Z,101616.91
2023-05-09T05:17:25.644Z,101611.84
2023-05-09T05:19:52.023Z,101605.09
2023-05-09T05:22:18.371Z,101597.22
2023-05-09T05:24:44.711Z,101597.66
2023-05-09T05:27:11.081Z,101596.22
2023-05-09T05:29:37.430Z,101584.91
2023-05-09T05:32:03.813Z,101586.63
2023-05-09T05:34:30.339Z,101581.72
2023-05-09T05:36:56.755Z,101577.75
2023-05-09T05:39:23.082Z,101574.91
2023-05-09T05:41:49.435Z,101577.38
2023-05-09T05:44:15.768Z,101580.31
2023-05-09T05:46:42.089Z,101575.25
2023-05-09T05:49:08.508Z,101568.13
2023-05-09T05:51:35.251Z,101581.00
2023-05-09T05:54:04.041Z,101570.22
2023-05-09T05:56:30.701Z,101562.66
2023-05-09T05:58:57.070Z,101557.91
2023-05-09T06:01:23.388Z,101564.63
2023-05-09T06:03:54.591Z,101560.09
2023-05-09T06:06:22.347Z,101550.16
2023-05-09T06:08:51.834Z,101560.53
2023-05-09T06:11:19.004Z,101556.41
2023-05-09T06:13:45.558Z,101552.31
2023-05-09T06:16:19.342Z,101553.09
2023-05-09T06:18:47.252Z,101540.81
2023-05-09T06:21:13.563Z,101538.56
2023-05-09T06:23:44.763Z,101534.47
2023-05-09T06:26:14.819Z,101526.88
2023-05-09T06:28:42.593Z,101537.25
2023-05-09T06:31:09.004Z,101526.88
2023-05-09T06:33:35.414Z,101528.00
2023-05-09T06:36:02.018Z,101522.66
2023-05-09T06:38:28.442Z,101519.19
2023-05-09T06:40:54.986Z,101506.13
2023-05-09T06:43:21.373Z,101506.13
2023-05-09T06:45:47.689Z,101508.16
2023-05-09T06:48:14.203Z,101500.91
2023-05-09T06:50:40.549Z,101501.69
2023-05-09T06:53:06.933Z,101502.13
2023-05-09T06:55:33.441Z,101498.00
2023-05-09T06:57:59.866Z,101496.56
2023-05-09T07:00:27.133Z,101503.94
2023-05-09T07:02:53.550Z,101495.56
2023-05-09T07:05:20.512Z,101496.69
2023-05-09T07:07:46.870Z,101493.66
2023-05-09T07:10:13.385Z,101489.88
2023-05-09T07:12:40.388Z,101492.69
2023-05-09T07:15:07.735Z,101487.75
2023-05-09T07:17:34.185Z,101482.09
2023-05-09T07:20:00.658Z,101481.75
2023-05-09T07:22:28.759Z,101476.53
2023-05-09T07:24:57.135Z,101471.63
2023-05-09T07:27:23.569Z,101478.66
2023-05-09T07:29:52.274Z,101472.53
2023-05-09T07:32:19.623Z,101478.19
2023-05-09T07:34:45.947Z,101475.06
2023-05-09T07:37:13.721Z,101475.84
2023-05-09T07:39:41.816Z,101470.63
2023-05-09T07:42:08.370Z,101464.16
2023-05-09T07:44:34.796Z,101466.16
2023-05-09T07:47:02.799Z,101468.50
2023-05-09T07:49:29.218Z,101470.06
2023-05-09T07:51:55.560Z,101468.94
2023-05-09T07:54:21.993Z,101472.31
2023-05-09T07:56:48.520Z,101464.94
2023-05-09T07:59:14.977Z,101457.66
2023-05-09T08:01:41.358Z,101449.97
2023-05-09T08:04:09.041Z,101455.78
2023-05-09T08:06:35.942Z,101451.66
2023-05-09T08:09:03.001Z,101435.25
2023-05-09T08:11:29.353Z,101440.47
2023-05-09T08:13:55.815Z,101440.03
2023-05-09T08:16:22.183Z,101438.47
2023-05-09T08:18:48.530Z,101430.22
2023-05-09T08:21:14.854Z,101426.53
2023-05-09T08:23:41.241Z,101417.38
2023-05-09T08:26:07.667Z,101422.75
2023-05-09T08:28:34.213Z,101415.16
2023-05-09T08:31:00.664Z,101418.59
2023-05-09T08:33:27.284Z,101411.91
2023-05-09T08:35:54.262Z,101411.13
2023-05-09T08:38:21.068Z,101410.00
2023-05-09T08:40:47.826Z,101405.91
2023-05-09T08:43:19.555Z,101402.88
2023-05-09T08:45:50.810Z,101403.88
2023-05-09T08:48:18.058Z,101405.78
2023-05-09T08:50:44.832Z,101399.84
2023-05-09T08:53:14.584Z,101394.06
2023-05-09T08:55:41.960Z,101399.72
2023-05-09T08:58:09.736Z,101393.16
2023-05-09T09:00:38.257Z,101389.03
2023-05-09T09:03:06.517Z,101393.03
2023-05-09T09:05:41.889Z,101376.31
2023-05-09T09:08:10.791Z,101383.78
2023-05-09T09:10:41.213Z,101380.75
2023-05-09T09:13:10.138Z,101380.88
2023-05-09T09:15:38.569Z,101379.44
2023-05-09T09:18:12.123Z,101371.81
2023-05-09T09:20:47.827Z,101384.53
2023-05-09T09:23:20.424Z,101378.75
2023-05-09T09:25:47.630Z,101375.28
2023-05-09T09:28:14.712Z,101377.19
2023-05-09T09:30:58.949Z,101363.44
2023-05-09T09:33:27.017Z,101366.47
2023-05-09T09:35:56.274Z,101362.53
2023-05-09T09:38:24.578Z,101366.25
2023-05-09T09:40:57.898Z,101366.34
2023-05-09T09:43:31.602Z,101361.09
2023-05-09T09:46:02.287Z,101360.66
2023-05-09T09:48:34.017Z,101354.19
2023-05-09T09:51:18.734Z,101352.19
2023-05-09T09:53:45.114Z,101350.63
2023-05-09T09:56:11.672Z,101349.50
2023-05-09T09:58:38.246Z,101346.72
2023-05-09T10:01:09.459Z,101349.63
2023-05-09T10:03:41.381Z,101352.19
2023-05-09T10:06:15.964Z,101350.19
2023-05-09T10:08:49.079Z,101348.63
2023-05-09T10:11:16.458Z,101343.72
2023-05-09T10:13:43.628Z,101340.34
2023-05-09T10:16:11.247Z,101345.50
2023-05-09T10:18:41.199Z,101337.09
2023-05-09T10:21:11.482Z,101340.25
2023-05-09T10:23:41.510Z,101343.00
2023-05-09T10:26:27.532Z,101331.63
2023-05-09T10:28:57.094Z,101335.88
2023-05-09T10:31:29.470Z,101328.84
2023-05-09T10:33:56.414Z,101335.19
2023-05-09T10:36:24.014Z,101324.94
2023-05-09T10:38:53.791Z,101318.03
2023-05-09T10:41:21.952Z,101314.03
2023-05-09T10:43:48.430Z,101313.56
2023-05-09T10:46:15.851Z,101307.44
2023-05-09T10:48:43.375Z,101306.66
2023-05-09T10:51:10.402Z,101298.63
2023-05-09T10:53:50.185Z,101300.16
2023-05-09T10:56:23.929Z,101295.59
2023-05-09T10:58:50.276Z,101290.22
2023-05-09T11:01:29.344Z,101288.09
2023-05-09T11:03:57.770Z,101282.84
2023-05-09T11:06:41.979Z,101281.84
2023-05-09T11:09:34.843Z,101282.16
2023-05-09T11:12:09.879Z,101276.81
2023-05-09T11:14:44.875Z,101281.06
2023-05-09T11:17:15.520Z,101272.91
2023-05-09T11:19:47.808Z,101276.72
2023-05-09T11:22:21.453Z,101267.22
2023-05-09T11:24:49.970Z,101263.75
2023-05-09T11:27:24.220Z,101266.66
2023-05-09T11:29:55.320Z,101255.53
2023-05-09T11:32:27.188Z,101256.41
2023-05-09T11:35:06.491Z,101249.69
2023-05-09T11:37:33.347Z,101250.91
2023-05-09T11:40:03.036Z,101242.31
2023-05-09T11:42:29.871Z,101243.34
2023-05-09T11:44:58.073Z,101240.81
2023-05-09T11:47:25.367Z,101237.66
2023-05-09T11:49:52.209Z,101240.81
2023-05-09T11:52:19.628Z,101237.66
2023-05-09T11:54:46.002Z,101234.13
2023-05-09T11:57:17.195Z,101236.25
2023-05-09T11:59:47.794Z,101232.69
2023-05-09T12:02:14.383Z,101232.16
2023-05-09T12:04:40.931Z,101228.16
2023-05-09T12:07:07.515Z,101225.34
2023-05-09T12:09:37.814Z,101225.03
2023-05-09T12:12:14.377Z,101222.78
2023-05-09T12:14:41.568Z,101216.66
2023-05-09T12:17:08.346Z,101223.91
2023-05-09T12:19:35.715Z,101219.22
2023-05-09T12:22:05.288Z,101215.00
2023-05-09T12:24:32.160Z,101218.31
2023-05-09T12:26:59.865Z,101211.09
2023-05-09T12:29:27.081Z,101204.16
2023-05-09T12:31:54.267Z,101207.63
2023-05-09T12:34:21.148Z,101203.38
2023-05-09T12:36:50.889Z,101204.16
2023-05-09T12:39:24.642Z,101197.03
2023-05-09T12:42:00.998Z,101194.00
2023-05-09T12:44:29.824Z,101193.34
2023-05-09T12:47:01.786Z,101188.09
2023-05-09T12:49:29.431Z,101180.84
2023-05-09T12:51:57.958Z,101179.03
2023-05-09T12:54:28.926Z,101178.91
2023-05-09T12:56:57.253Z,101175.28
2023-05-09T12:59:29.017Z,101175.50
2023-05-09T13:01:59.956Z,101176.03
2023-05-09T13:04:28.079Z,101170.69
2023-05-09T13:06:57.410Z,101171.78
2023-05-09T13:09:25.925Z,101165.09
2023-05-09T13:11:53.013Z,101163.13
2023-05-09T13:14:22.431Z,101165.34
2023-05-09T13:16:48.994Z,101167.59
2023-05-09T13:19:16.242Z,101159.13
2023-05-09T13:21:42.613Z,101151.09
2023-05-09T13:24:09.118Z,101153.06
2023-05-09T13:26:35.646Z,101153.06
2023-05-09T13:29:02.178Z,101148.06
2023-05-09T13:31:28.719Z,101148.25
2023-05-09T13:33:55.152Z,101145.56
2023-05-09T13:36:21.500Z,101138.47
2023-05-09T13:38:48.121Z,101135.09
2023-05-09T13:41:19.926Z,101129.59
2023-05-09T13:43:46.410Z,101125.97
2023-05-09T13:46:12.890Z,101132.22
2023-05-09T13:48:39.834Z,101135.94
2023-05-09T13:51:07.686Z,101130.03
2023-05-09T13:53:34.404Z,101130.28
2023-05-09T13:56:01.389Z,101129.50
2023-05-09T13:58:27.953Z,101123.28
2023-05-09T14:00:54.324Z,101125.44
2023-05-09T14:03:20.722Z,101126.53
2023-05-09T14:05:48.044Z,101120.50
2023-05-09T14:08:14.465Z,101118.72
2023-05-09T14:10:40.832Z,101113.88
2023-05-09T14:13:08.294Z,101111.88
2023-05-09T14:15:35.106Z,101109.78
2023-05-09T14:18:01.993Z,101112.38
2023-05-09T14:20:28.365Z,101105.81
2023-05-09T14:22:55.246Z,101106.03
2023-05-09T14:25:22.555Z,101098.59
2023-05-09T14:27:49.298Z,101096.13
2023-05-09T14:30:16.006Z,101098.91
2023-05-09T14:32:42.507Z,101096.28
2023-05-09T14:35:09.436Z,101092.50
2023-05-09T14:37:37.113Z,101091.72
2023-05-09T14:40:05.472Z,101089.50
2023-05-09T14:42:33.009Z,101086.34
2023-05-09T14:44:59.851Z,101076.19
2023-05-09T14:47:26.598Z,101082.75
2023-05-09T14:49:53.144Z,101074.28
2023-05-09T14:52:20.064Z,101072.81
2023-05-09T14:54:46.434Z,101067.38
2023-05-09T14:57:13.184Z,101061.06
2023-05-09T14:59:39.618Z,101066.31
2023-05-09T15:02:06.961Z,101063.19
2023-05-09T15:04:33.373Z,101058.63
2023-05-09T15:07:00.106Z,101052.13
2023-05-09T15:09:27.004Z,101048.78
2023-05-09T15:11:53.776Z,101056.47
2023-05-09T15:14:20.125Z,101045.09
2023-05-09T15:16:46.686Z,101058.13
2023-05-09T15:19:14.488Z,101049.31
2023-05-09T15:21:40.917Z,101042.13
2023-05-09T15:24:07.535Z,101036.78
2023-05-09T15:26:34.049Z,101036.53
2023-05-09T15:29:00.407Z,101030.84
2023-05-09T15:31:31.715Z,101036.53
2023-05-09T15:33:58.375Z,101037.28
2023-05-09T15:36:24.763Z,101033.78
2023-05-09T15:38:51.093Z,101027.19
2023-05-09T15:41:18.415Z,101032.13
2023-05-09T15:43:44.765Z,101031.69
2023-05-09T15:46:11.201Z,101026.75
2023-05-09T15:48:37.678Z,101025.28
2023-05-09T15:51:04.350Z,101024.50
2023-05-09T15:53:31.052Z,101028.75
2023-05-09T15:55:57.395Z,101029.09
2023-05-09T15:58:23.868Z,101029.44
2023-05-09T16:00:50.755Z,101022.06
2023-05-09T16:03:18.034Z,101017.44
2023-05-09T16:05:45.198Z,101011.97
2023-05-09T16:08:12.005Z,101021.47
2023-05-09T16:10:38.427Z,101008.75
2023-05-09T16:13:04.840Z,101012.16
2023-05-09T16:15:31.173Z,101014.28
2023-05-09T16:17:57.566Z,101011.50
2023-05-09T16:20:24.251Z,101011.75
2023-05-09T16:22:50.590Z,101006.06
2023-05-09T16:25:16.993Z,101012.19
2023-05-09T16:27:43.368Z,101009.84
2023-05-09T16:30:10.217Z,101001.06
2023-05-09T16:32:36.965Z,100998.28
2023-05-09T16:35:04.107Z,100990.59
2023-05-09T16:37:35.413Z,100994.81
2023-05-09T16:40:02.773Z,100992.91
2023-05-09T16:42:29.203Z,100990.69
2023-05-09T16:44:56.010Z,100985.69
2023-05-09T16:47:22.506Z,100988.38
2023-05-09T16:49:50.246Z,100989.03
2023-05-09T16:52:16.748Z,100980.91
2023-05-09T16:54:43.227Z,100979.00
2023-05-09T16:57:09.737Z,100975.91
2023-05-09T16:59:37.103Z,100978.16
2023-05-09T17:02:04.336Z,100970.00
2023-05-09T17:04:30.807Z,100979.59
2023-05-09T17:06:57.204Z,100975.72
2023-05-09T17:09:23.554Z,100968.81
2023-05-09T17:11:49.944Z,100969.47
2023-05-09T17:14:16.262Z,100971.00
2023-05-09T17:16:42.880Z,100966.34
2023-05-09T17:19:09.256Z,100971.69
2023-05-09T17:21:35.621Z,100963.22
2023-05-09T17:24:02.106Z,100970.03
2023-05-09T17:26:29.542Z,100962.78
2023-05-09T17:28:55.976Z,100960.13
2023-05-09T17:31:22.588Z,100956.66
2023-05-09T17:33:49.089Z,100957.44
2023-05-09T17:36:15.511Z,100959.34
2023-05-09T17:38:41.938Z,100957.03
2023-05-09T17:41:08.322Z,100954.34
2023-05-09T17:43:34.660Z,100957.03
2023-05-09T17:46:01.014Z,100964.69
2023-05-09T17:48:27.761Z,100951.66
2023-05-09T17:50:54.381Z,100955.13
2023-05-09T17:53:20.768Z,100951.31
2023-05-09T17:55:47.157Z,100952.00
2023-05-09T17:58:14.831Z,100956.91
2023-05-09T18:00:41.375Z,100957.69
2023-05-09T18:03:07.930Z,100954.59
2023-05-09T18:05:34.642Z,100963.03
2023-05-09T18:08:01.449Z,100954.59
2023-05-09T18:10:28.620Z,100960.25
2023-05-09T18:12:56.472Z,100955.72
2023-05-09T18:15:22.956Z,100954.47
2023-05-09T18:17:49.675Z,100959.81
2023-05-09T18:20:16.223Z,100955.94
2023-05-09T18:22:42.764Z,100951.28
2023-05-09T18:25:09.536Z,100952.41
2023-05-09T18:27:35.948Z,100959.63
2023-05-09T18:30:02.622Z,100949.72
2023-05-09T18:32:30.073Z,100952.41
2023-05-09T18:34:56.693Z,100954.28
2023-05-09T18:37:25.302Z,100958.09
2023-05-09T18:39:52.842Z,100952.75
2023-05-09T18:42:19.280Z,100955.06
2023-05-09T18:44:45.884Z,100955.06
2023-05-09T18:47:12.328Z,100952.41
2023-05-09T18:49:39.147Z,100954.19
2023-05-09T18:52:05.554Z,100950.38
2023-05-09T18:54:31.974Z,100948.84
2023-05-09T18:56:58.401Z,100948.06
2023-05-09T18:59:24.729Z,100952.63
2023-05-09T19:01:51.119Z,100948.75
2023-05-09T19:04:19.292Z,100948.75
2023-05-09T19:06:46.400Z,100946.84
2023-05-09T19:09:12.877Z,100947.94
2023-05-09T19:11:39.558Z,100941.06
2023-05-09T19:14:06.058Z,100953.22
2023-05-09T19:16:32.562Z,100956.25
2023-05-09T19:18:58.949Z,100948.53
2023-05-09T19:21:25.496Z,100955.78
2023-05-09T19:23:51.904Z,100959.22
2023-05-09T19:26:19.311Z,100957.34
2023-05-09T19:28:46.579Z,100960.00
2023-05-09T19:31:15.057Z,100962.25
2023-05-09T19:33:45.210Z,100956.91
2023-05-09T19:36:11.770Z,100968.38
2023-05-09T19:38:38.122Z,100966.81
2023-05-09T19:41:05.184Z,100971.06
2023-05-09T19:43:32.838Z,100977.19
2023-05-09T19:46:00.038Z,100972.59
2023-05-09T19:48:26.753Z,100969.16
2023-05-09T19:50:57.857Z,100974.50
2023-05-09T19:53:24.691Z,100974.41
2023-05-09T19:55:51.695Z,100976.28
2023-05-09T19:58:18.120Z,100975.50
2023-05-09T20:00:44.745Z,100976.63
2023-05-09T20:03:11.135Z,100982.69
2023-05-09T20:05:37.824Z,100981.44
2023-05-09T20:08:04.583Z,100983.00
2023-05-09T20:10:32.827Z,100984.13
2023-05-09T20:13:00.772Z,100985.59
2023-05-09T20:15:27.806Z,100989.38
2023-05-09T20:17:54.424Z,100994.59
2023-05-09T20:20:21.026Z,100986.16
2023-05-09T20:22:47.539Z,100986.81
2023-05-09T20:25:14.713Z,100990.16
2023-05-09T20:27:41.234Z,100991.28
2023-05-09T20:30:08.162Z,100995.75
2023-05-09T20:32:34.950Z,100995.75
2023-05-09T20:35:01.354Z,100992.63
2023-05-09T20:37:27.814Z,100989.50
2023-05-09T20:39:54.198Z,101000.09
2023-05-09T20:42:20.561Z,100995.44
2023-05-09T20:44:47.706Z,100990.41
2023-05-09T20:47:14.211Z,100999.88
2023-05-09T20:49:40.605Z,100987.50
2023-05-09T20:52:07.001Z,100998.19
2023-05-09T20:54:33.465Z,101003.53
2023-05-09T20:56:59.893Z,101006.56
2023-05-09T20:59:26.372Z,101008.78
2023-05-09T21:01:55.392Z,101000.44
2023-05-09T21:04:23.030Z,101008.47
2023-05-09T21:06:49.534Z,101003.75
2023-05-09T21:09:15.937Z,101005.66
2023-05-09T21:11:42.414Z,101007.91
2023-05-09T21:14:09.664Z,101000.19
2023-05-09T21:16:36.264Z,100997.88
2023-05-09T21:19:04.816Z,100994.75
2023-05-09T21:21:33.109Z,100992.44
2023-05-09T21:24:03.054Z,100998.84
2023-05-09T21:26:29.969Z,100990.75
2023-05-09T21:28:56.561Z,100996.88
2023-05-09T21:31:23.046Z,100996.09
2023-05-09T21:33:49.577Z,100987.63
2023-05-09T21:36:16.266Z,100984.50
2023-05-09T21:38:42.692Z,100981.41
2023-05-09T21:41:10.017Z,100980.16
2023-05-09T21:43:37.449Z,100985.50
2023-05-09T21:46:05.461Z,100980.38
2023-05-09T21:48:31.975Z,100982.16
2023-05-09T21:51:03.861Z,100984.00
2023-05-09T21:53:30.717Z,100978.69
2023-05-09T21:55:57.167Z,100981.69
2023-05-09T21:58:23.614Z,100975.56
2023-05-09T22:00:49.994Z,100977.34
2023-05-09T22:03:16.474Z,100976.13
2023-05-09T22:05:42.865Z,100970.00
2023-05-09T22:08:09.252Z,100971.91
2023-05-09T22:10:37.628Z,100973.00
2023-05-09T22:13:04.159Z,100972.22
2023-05-09T22:15:30.614Z,100974.09
2023-05-09T22:17:57.159Z,100970.66
2023-05-09T22:20:23.688Z,100970.66
2023-05-09T22:22:50.150Z,100964.19
2023-05-09T22:25:16.509Z,100964.53
2023-05-09T22:27:42.935Z,100959.19
2023-05-09T22:30:12.068Z,100964.53
2023-05-09T22:32:39.103Z,100965.22
2023-05-09T22:35:06.035Z,100966.66
2023-05-09T22:37:32.448Z,100957.84
2023-05-09T22:40:01.237Z,100953.63
2023-05-09T22:42:29.279Z,100960.41
2023-05-09T22:44:55.771Z,100957.63
2023-05-09T22:47:22.210Z,100964.53
2023-05-09T22:49:49.553Z,100961.09
2023-05-09T22:52:16.229Z,100963.31
2023-05-09T22:54:42.663Z,100957.50
2023-05-09T22:57:09.626Z,100957.41
2023-05-09T22:59:36.883Z,100963.06
2023-05-09T23:02:03.696Z,100956.72
2023-05-09T23:04:30.324Z,100952.03
2023-05-09T23:06:56.705Z,100955.03
2023-05-09T23:09:23.370Z,100963.38
2023-05-09T23:11:49.767Z,100966.38
2023-05-09T23:14:16.128Z,100966.38
2023-05-09T23:16:42.623Z,100964.50
2023-05-09T23:19:10.339Z,100958.03
2023-05-09T23:21:36.666Z,100960.72
2023-05-09T23:24:03.058Z,100945.81
2023-05-09T23:26:30.318Z,100954.13
2023-05-09T23:28:56.709Z,100963.25
2023-05-09T23:31:23.091Z,100963.91
2023-05-09T23:33:49.709Z,100960.47
2023-05-09T23:36:16.063Z,100958.09
2023-05-09T23:38:42.580Z,100956.91
2023-05-09T23:41:08.951Z,100963.00
2023-05-09T23:43:35.265Z,100954.56
2023-05-09T23:46:01.805Z,100956.13
2023-05-09T23:48:28.192Z,100960.22
2023-05-09T23:50:54.549Z,100955.97
2023-05-09T23:53:20.994Z,100958.66
2023-05-09T23:55:47.391Z,100954.88
2023-05-09T23:58:14.021Z,100951.09
